Time;durP1;ratioP1;P1;durP2;ratioP2;P2;SDS_P1;SDS_P2;PMS_P1;PMS_P2;Temp;Humidity;BMP_temperature;BMP_pressure;BME280_temperature;BME280_humidity;BME280_pressure;Samples;Min_cycle;Max_cycle;Signal;HPM_P1;HPM_P2
2023/02/02 00:01:50;;;;;;;15.80;11.40;;;;;;;-0.02;83.80;99316.84;105776;1254;59673;-79
2023/02/02 00:04:23;;;;;;;16.40;11.90;;;;;;;-0.02;83.78;99313.05;105866;1254;64523;-77
2023/02/02 00:06:51;;;;;;;;;;;;;;;-0.02;83.75;99309.80;105517;1255;59712;-77
2023/02/02 00:09:19;;;;;;;14.90;11.00;;;;;;;-0.03;83.76;99307.55;105587;1254;59759;-78
2023/02/02 00:11:49;;;;;;;16.50;11.40;;;;;;;-0.02;83.77;99308.91;105669;1258;66166;-77
2023/02/02 00:14:17;;;;;;;18.00;12.80;;;;;;;-0.02;83.76;99310.28;105817;1254;59979;-76
2023/02/02 00:16:48;;;;;;;14.90;10.70;;;;;;;-0.00;83.78;99311.44;105599;1254;65985;-78
2023/02/02 00:19:21;;;;;;;14.50;10.60;;;;;;;0.01;83.81;99305.52;105816;1254;59698;-77
2023/02/02 00:21:49;;;;;;;18.90;11.30;;;;;;;0.02;83.82;99301.15;105680;1259;59206;-77
2023/02/02 00:24:17;;;;;;;17.60;12.00;;;;;;;0.03;83.78;99302.30;105890;1252;65902;-76
2023/02/02 00:26:48;;;;;;;21.00;12.20;;;;;;;0.03;83.84;99303.98;105962;1256;59954;-77
2023/02/02 00:29:19;;;;;;;17.00;11.10;;;;;;;0.04;83.71;99309.86;106050;1254;65589;-77
2023/02/02 00:31:47;;;;;;;16.80;11.20;;;;;;;0.04;83.84;99309.67;105847;1262;60530;-78
2023/02/02 00:34:15;;;;;;;15.00;10.70;;;;;;;0.04;83.80;99308.11;105834;1260;60297;-77
2023/02/02 00:36:46;;;;;;;14.40;11.10;;;;;;;0.03;83.69;99306.40;105770;1254;65842;-77
2023/02/02 00:39:18;;;;;;;14.90;11.20;;;;;;;0.03;83.71;99307.48;105749;1254;60509;-79
2023/02/02 00:41:47;;;;;;;18.50;11.80;;;;;;;0.01;83.69;99309.64;105552;1255;65514;-78
2023/02/02 00:45:17;;;;;;;16.20;12.20;;;;;;;0.01;83.64;99309.67;105838;1254;60406;-76
2023/02/02 00:47:12;;;;;;;19.70;12.40;;;;;;;-0.01;83.69;99303.64;105879;1257;60511;-77
2023/02/02 00:49:40;;;;;;;17.00;13.00;;;;;;;0.00;83.65;99302.42;106025;1254;66402;-76
2023/02/02 00:52:10;;;;;;;17.60;11.50;;;;;;;-0.01;83.65;99305.55;105803;1254;60510;-76
2023/02/02 00:54:39;;;;;;;18.90;13.00;;;;;;;-0.02;83.62;99305.59;105850;1255;65494;-77
2023/02/02 00:57:10;;;;;;;16.00;11.80;;;;;;;-0.02;83.63;99301.99;106028;1251;60814;-77
2023/02/02 00:59:39;;;;;;;19.10;11.80;;;;;;;-0.02;83.69;99299.91;105832;1254;60444;-77
2023/02/02 01:02:11;;;;;;;16.10;11.00;;;;;;;-0.02;83.70;99298.70;106017;1256;65571;-77
2023/02/02 01:04:39;;;;;;;18.80;12.70;;;;;;;-0.01;83.63;99297.28;105997;1254;60446;-77
2023/02/02 01:07:09;;;;;;;17.70;11.20;;;;;;;-0.01;83.70;99294.50;106013;1254;65566;-76
2023/02/02 01:09:37;;;;;;;19.80;11.70;;;;;;;-0.01;83.61;99297.10;105818;1260;60427;-77
2023/02/02 01:12:09;;;;;;;17.90;11.00;;;;;;;-0.00;83.65;99292.91;105584;1254;60402;-77
2023/02/02 01:14:37;;;;;;;14.50;9.70;;;;;;;0.01;83.81;99292.52;106005;1256;66935;-77
2023/02/02 01:17:05;;;;;;;19.50;10.90;;;;;;;0.03;83.74;99290.19;106068;1254;60536;-77
2023/02/02 01:19:34;;;;;;;17.00;10.80;;;;;;;0.04;83.71;99289.44;106091;1254;65486;-77
2023/02/02 01:22:03;;;;;;;15.90;10.70;;;;;;;0.05;83.70;99287.07;105916;1254;60417;-78
2023/02/02 01:24:31;;;;;;;15.40;10.20;;;;;;;0.07;83.73;99285.23;106080;1254;60642;-77
2023/02/02 01:27:00;;;;;;;16.80;9.50;;;;;;;0.09;83.80;99283.09;105998;1254;66598;-77
2023/02/02 01:29:28;;;;;;;14.20;9.50;;;;;;;0.09;83.73;99286.17;106098;1253;60510;-78
2023/02/02 01:31:56;;;;;;;17.00;9.80;;;;;;;0.10;83.76;99286.14;105897;1254;65516;-77
2023/02/02 01:34:25;;;;;;;14.90;8.90;;;;;;;0.11;83.67;99290.40;106100;1255;60427;-78
2023/02/02 01:36:55;;;;;;;15.20;8.80;;;;;;;0.12;83.78;99290.17;106066;1253;60514;-78
2023/02/02 01:39:23;;;;;;;13.40;8.30;;;;;;;0.14;83.73;99289.58;106029;1257;66704;-78
2023/02/02 01:41:51;;;;;;;13.10;7.60;;;;;;;0.14;83.69;99289.02;106031;1253;60335;-77
2023/02/02 01:44:51;;;;;;;13.60;8.00;;;;;;;0.15;83.70;99289.98;105819;1254;65576;-77
2023/02/02 01:47:21;;;;;;;14.60;8.20;;;;;;;0.16;83.71;99293.41;106020;1257;60405;-76
2023/02/02 01:49:49;;;;;;;13.10;7.00;;;;;;;0.16;83.82;99294.95;106079;1253;60434;-76
2023/02/02 01:52:17;;;;;;;14.10;6.80;;;;;;;0.17;83.75;99294.77;105809;1253;66939;-77
2023/02/02 01:54:52;;;;;;;12.30;6.80;;;;;;;0.17;83.78;99292.11;106086;1256;60507;-76
2023/02/02 01:57:32;;;;;;;13.20;6.20;;;;;;;0.19;83.76;99296.17;105690;1254;65393;-76
2023/02/02 02:00:02;;;;;;;10.50;6.70;;;;;;;0.20;83.75;99296.66;105864;1253;60405;-76
2023/02/02 02:02:43;;;;;;;11.70;6.80;;;;;;;0.21;83.70;99293.31;105909;1254;60533;-77
2023/02/02 02:05:14;;;;;;;10.70;7.00;;;;;;;0.22;83.81;99300.52;105860;1258;66707;-77
2023/02/02 02:07:44;;;;;;;9.70;7.10;;;;;;;0.23;83.81;99300.31;105813;1253;60628;-77
2023/02/02 02:10:13;;;;;;;11.90;7.00;;;;;;;0.23;83.73;99296.32;105816;1253;65895;-78
2023/02/02 02:12:44;;;;;;;12.50;6.50;;;;;;;0.25;83.73;99295.20;105892;1254;60345;-77
2023/02/02 02:18:24;;;;;;;11.90;6.70;;;;;;;0.27;83.73;99296.09;105798;1259;66786;-76
2023/02/02 02:27:46;;;;;;;10.00;5.40;;;;;;;0.31;83.75;99296.07;105953;1256;60527;-77
2023/02/02 02:30:24;;;;;;;12.70;6.30;;;;;;;0.32;83.71;99296.02;105780;1254;60377;-76
2023/02/02 02:33:01;;;;;;;12.00;6.60;;;;;;;0.33;83.72;99300.48;106079;1254;66740;-76
2023/02/02 02:35:39;;;;;;;13.50;6.70;;;;;;;0.34;83.76;99303.38;105794;1258;60518;-77
2023/02/02 02:38:10;;;;;;;12.40;6.20;;;;;;;0.34;83.65;99302.82;105913;1258;65312;-76
2023/02/02 02:40:46;;;;;;;12.50;6.60;;;;;;;0.34;83.76;99304.54;105771;1254;60366;-76
2023/02/02 02:43:33;;;;;;;12.40;6.60;;;;;;;0.34;83.80;99305.41;105850;1254;60437;-76
2023/02/02 02:46:01;;;;;;;10.70;6.10;;;;;;;0.35;83.77;99300.19;105775;1259;66706;-76
2023/02/02 02:48:31;;;;;;;13.90;6.80;;;;;;;0.34;83.80;99298.33;105763;1253;60545;-76
2023/02/02 02:51:42;;;;;;;12.40;6.30;;;;;;;0.34;83.80;99292.29;105455;1254;65323;-76
2023/02/02 02:54:42;;;;;;;10.90;6.30;;;;;;;0.33;83.78;99295.09;105636;1259;60427;-76
2023/02/02 02:57:28;;;;;;;9.70;6.00;;;;;;;0.33;83.75;99298.94;105530;1254;60450;-77
2023/02/02 03:00:08;;;;;;;11.50;5.90;;;;;;;0.32;83.79;99297.92;105746;1259;66853;-77
2023/02/02 03:03:19;;;;;;;13.90;6.40;;;;;;;0.32;83.78;99301.20;105986;1255;60443;-77
2023/02/02 03:05:52;;;;;;;9.70;5.50;;;;;;;0.33;83.82;99300.63;105423;1264;65791;-76
2023/02/02 03:08:34;;;;;;;11.30;5.70;;;;;;;0.34;83.83;99300.91;105857;1259;60422;-76
2023/02/02 03:11:04;;;;;;;10.80;5.90;;;;;;;0.34;83.80;99299.86;105702;1254;60871;-77
2023/02/02 03:13:32;;;;;;;12.40;5.90;;;;;;;0.35;83.86;99299.30;105761;1258;66464;-76
2023/02/02 03:16:01;;;;;;;12.10;6.10;;;;;;;0.36;83.86;99296.11;105814;1258;60593;-77
2023/02/02 03:18:30;;;;;;;9.70;5.80;;;;;;;0.36;83.93;99296.98;106065;1255;65575;-77
2023/02/02 03:20:58;;;;;;;11.50;5.70;;;;;;;0.36;83.84;99297.34;106001;1256;60626;-78
2023/02/02 03:23:27;;;;;;;13.40;6.30;;;;;;;0.37;83.80;99301.10;105737;1254;60498;-77
2023/02/02 03:25:55;;;;;;;11.10;6.20;;;;;;;0.37;83.85;99301.78;105725;1258;66398;-77
2023/02/02 03:28:23;;;;;;;11.80;6.10;;;;;;;0.37;83.82;99303.01;105936;1256;61700;-76
2023/02/02 03:30:51;;;;;;;12.60;6.70;;;;;;;0.36;83.80;99309.27;105629;1254;64543;-76
2023/02/02 03:33:20;;;;;;;10.70;5.60;;;;;;;0.35;83.75;99314.71;105972;1256;60392;-76
2023/02/02 03:35:48;;;;;;;11.30;6.50;;;;;;;0.34;83.88;99318.40;105857;1256;60479;-77
2023/02/02 03:38:20;;;;;;;12.50;6.30;;;;;;;0.33;83.75;99318.61;105965;1257;66464;-76
2023/02/02 03:40:50;;;;;;;12.40;6.70;;;;;;;0.32;83.81;99319.55;106032;1253;60485;-77
2023/02/02 03:43:21;;;;;;;13.20;6.50;;;;;;;0.31;83.80;99316.70;105787;1254;65609;-75
2023/02/02 03:46:02;;;;;;;12.30;6.00;;;;;;;0.28;83.80;99314.58;105643;1254;60457;-77
2023/02/02 03:48:34;;;;;;;11.60;6.80;;;;;;;0.26;83.83;99314.69;105950;1254;60441;-76
2023/02/02 03:51:13;;;;;;;11.80;6.50;;;;;;;0.24;83.80;99314.09;105881;1260;65776;-78
2023/02/02 03:53:46;;;;;;;14.30;6.70;;;;;;;0.24;83.84;99312.90;105849;1255;60460;-77
2023/02/02 03:56:14;;;;;;;13.80;6.90;;;;;;;0.23;83.81;99311.05;105881;1257;65312;-76
2023/02/02 03:58:45;;;;;;;11.10;6.40;;;;;;;0.21;83.82;99313.23;105857;1254;60415;-76
2023/02/02 04:01:13;;;;;;;12.20;6.00;;;;;;;0.21;83.76;99313.77;105876;1255;60520;-77
2023/02/02 04:03:42;;;;;;;10.90;5.80;;;;;;;0.19;83.75;99313.15;105861;1260;66722;-76
2023/02/02 04:06:10;;;;;;;10.70;6.10;;;;;;;0.18;83.75;99318.04;106444;1256;60440;-76
2023/02/02 04:08:38;;;;;;;9.70;5.70;;;;;;;0.17;83.77;99322.62;105955;1253;65258;-76
2023/02/02 04:11:10;;;;;;;10.00;5.60;;;;;;;0.16;83.78;99329.77;105901;1254;60780;-77
2023/02/02 04:13:38;;;;;;;11.00;5.80;;;;;;;0.14;83.71;99333.85;106020;1257;60438;-77
2023/02/02 04:16:07;;;;;;;11.80;5.50;;;;;;;0.13;83.75;99337.75;105997;1254;66839;-77
2023/02/02 04:18:37;;;;;;;10.80;5.80;;;;;;;0.12;83.83;99336.41;105995;1251;60542;-76
2023/02/02 04:21:06;;;;;;;10.70;6.00;;;;;;;0.11;83.72;99340.27;105825;1259;64595;-76
2023/02/02 04:23:34;;;;;;;12.90;5.70;;;;;;;0.11;83.68;99344.09;105996;1251;60448;-76
2023/02/02 04:26:02;;;;;;;12.70;6.80;;;;;;;0.10;83.82;99351.38;105977;1256;61220;-76
2023/02/02 04:28:30;;;;;;;28.40;12.30;;;;;;;0.10;83.84;99350.85;105998;1251;66711;-76
2023/02/02 04:30:58;;;;;;;33.00;14.60;;;;;;;0.11;83.72;99354.80;106445;1256;60680;-76
2023/02/02 04:33:27;;;;;;;49.90;18.70;;;;;;;0.13;83.78;99359.89;106077;1257;65272;-77
2023/02/02 04:35:55;;;;;;;47.40;18.20;;;;;;;0.13;83.80;99360.26;106094;1256;60386;-76
2023/02/02 04:38:27;;;;;;;50.40;18.90;;;;;;;0.13;83.75;99358.00;105836;1257;60459;-76
2023/02/02 04:40:55;;;;;;;39.10;16.20;;;;;;;0.12;83.78;99358.02;106172;1257;66764;-76
2023/02/02 04:43:24;;;;;;;52.20;17.90;;;;;;;0.13;83.80;99357.82;106164;1255;60462;-75
2023/02/02 04:45:55;;;;;;;35.70;13.10;;;;;;;0.13;83.72;99357.11;106282;1255;65320;-75
2023/02/02 04:48:23;;;;;;;33.80;13.10;;;;;;;0.14;83.78;99357.09;106112;1256;60303;-76
2023/02/02 04:51:00;;;;;;;20.90;9.10;;;;;;;0.14;83.76;99357.25;105997;1257;60415;-75
2023/02/02 04:53:29;;;;;;;15.00;7.70;;;;;;;0.14;83.77;99360.67;106250;1256;66774;-76
2023/02/02 04:55:57;;;;;;;14.80;6.90;;;;;;;0.14;83.72;99366.39;105922;1254;60446;-77
2023/02/02 04:58:25;;;;;;;15.30;8.40;;;;;;;0.14;83.85;99370.73;106050;1254;65886;-77
2023/02/02 05:00:54;;;;;;;15.90;9.10;;;;;;;0.14;83.79;99369.17;106137;1256;60305;-77
2023/02/02 05:03:22;;;;;;;13.70;7.80;;;;;;;0.14;83.69;99368.48;106181;1251;60443;-76
2023/02/02 05:05:51;;;;;;;11.70;7.00;;;;;;;0.14;83.65;99370.59;105947;1254;66813;-75
2023/02/02 05:08:19;;;;;;;12.50;7.80;;;;;;;0.13;83.69;99372.69;106011;1257;60543;-74
2023/02/02 05:10:49;;;;;;;14.60;8.20;;;;;;;0.13;83.67;99373.23;106099;1255;65585;-74
2023/02/02 05:13:19;;;;;;;14.50;7.90;;;;;;;0.12;83.70;99372.93;105886;1251;60530;-76
2023/02/02 05:15:47;;;;;;;14.10;8.50;;;;;;;0.11;83.60;99374.02;106078;1256;60474;-75
2023/02/02 05:18:16;;;;;;;14.80;8.60;;;;;;;0.12;83.67;99374.67;105773;1258;66768;-76
2023/02/02 05:20:44;;;;;;;12.60;7.70;;;;;;;0.12;83.63;99374.83;105767;1257;61064;-75
2023/02/02 05:23:12;;;;;;;15.90;8.70;;;;;;;0.12;83.68;99376.91;106084;1255;65743;-76
2023/02/02 05:25:41;;;;;;;12.20;8.00;;;;;;;0.12;83.62;99373.09;105959;1255;60411;-75
2023/02/02 05:28:09;;;;;;;14.80;8.40;;;;;;;0.12;83.63;99373.44;105968;1251;60492;-76
2023/02/02 05:30:39;;;;;;;13.50;8.30;;;;;;;0.12;83.70;99373.95;105817;1257;66485;-77
2023/02/02 05:33:07;;;;;;;18.20;9.60;;;;;;;0.12;83.70;99374.98;105718;1260;60509;-77
2023/02/02 05:35:35;;;;;;;15.40;9.90;;;;;;;0.12;83.58;99374.80;105929;1257;65741;-77
2023/02/02 05:38:04;;;;;;;19.10;11.80;;;;;;;0.12;83.60;99380.35;105980;1251;60396;-77
2023/02/02 05:40:32;;;;;;;16.90;8.70;;;;;;;0.13;83.61;99379.83;105762;1257;60569;-77
2023/02/02 05:43:01;;;;;;;12.10;6.80;;;;;;;0.13;83.58;99380.48;105903;1259;66891;-76
2023/02/02 05:45:29;;;;;;;13.10;6.80;;;;;;;0.14;83.56;99382.66;106165;1256;60527;-76
2023/02/02 05:47:58;;;;;;;14.70;7.10;;;;;;;0.14;83.54;99383.90;105734;1251;65877;-75
2023/02/02 05:50:26;;;;;;;10.40;6.60;;;;;;;0.14;83.46;99382.85;106134;1251;60529;-76
2023/02/02 05:53:01;;;;;;;11.20;6.90;;;;;;;0.15;83.48;99384.89;105887;1253;60438;-76
2023/02/02 05:55:30;;;;;;;11.50;7.50;;;;;;;0.15;83.49;99385.38;105927;1251;66472;-75
2023/02/02 05:57:58;;;;;;;11.40;7.30;;;;;;;0.16;83.51;99386.73;106497;1254;60482;-76
2023/02/02 06:00:26;;;;;;;13.00;8.00;;;;;;;0.17;83.47;99385.48;105912;1259;64539;-76
2023/02/02 08:15:36;;;;;;;12.50;8.00;;;;;;;0.74;87.84;99474.48;103739;1286;604753;-76
2023/02/02 08:18:04;;;;;;;15.70;9.00;;;;;;;1.40;85.61;99485.31;104850;1263;134511;-83
2023/02/02 08:20:32;;;;;;;13.30;8.30;;;;;;;1.45;85.22;99484.05;105484;1257;59404;-74
2023/02/02 08:23:01;;;;;;;19.40;10.90;;;;;;;1.47;84.83;99487.03;105519;1260;65145;-74
2023/02/02 08:25:29;;;;;;;15.70;10.20;;;;;;;1.47;84.57;99483.37;105457;1261;59977;-74
2023/02/02 08:27:57;;;;;;;16.30;9.80;;;;;;;1.49;84.46;99483.06;105283;1257;65560;-74
2023/02/02 08:30:26;;;;;;;14.40;8.60;;;;;;;1.51;84.17;99485.38;105302;1263;59346;-73
2023/02/02 08:36:28;;;;;;;20.10;11.50;;;;;;;1.57;83.74;99491.16;105541;1263;65021;-73
2023/02/02 08:39:01;;;;;;;18.00;10.50;;;;;;;1.61;83.47;99493.36;105368;1262;59753;-72
2023/02/02 08:41:31;;;;;;;14.90;9.80;;;;;;;1.67;83.43;99485.52;105574;1257;65389;-73
2023/02/02 08:43:59;;;;;;;14.80;9.80;;;;;;;1.74;83.18;99485.33;105408;1257;59610;-74
2023/02/02 08:46:27;;;;;;;16.20;9.90;;;;;;;1.77;82.95;99488.80;105570;1257;59640;-75
2023/02/02 08:48:56;;;;;;;12.30;9.30;;;;;;;1.77;82.63;99488.08;105419;1262;65783;-78
2023/02/02 08:51:25;;;;;;;12.60;8.80;;;;;;;1.77;82.24;99484.14;105496;1261;59810;-73
2023/02/02 08:53:54;;;;;;;14.20;9.30;;;;;;;1.76;82.00;99482.09;105459;1257;65595;-75
2023/02/02 08:56:24;;;;;;;15.30;10.00;;;;;;;1.76;81.81;99483.81;105400;1260;60198;-75
2023/02/02 08:59:01;;;;;;;13.50;9.10;;;;;;;1.80;81.60;99476.31;105462;1257;59736;-72
2023/02/02 09:01:31;;;;;;;13.10;9.20;;;;;;;1.84;81.45;99474.68;105498;1262;65408;-71
2023/02/02 09:04:03;;;;;;;13.30;8.60;;;;;;;1.89;81.42;99475.05;105565;1262;59702;-74
2023/02/02 09:06:32;;;;;;;12.50;8.40;;;;;;;1.95;81.20;99468.48;105409;1257;65704;-72
2023/02/02 09:09:04;;;;;;;12.10;8.10;;;;;;;1.99;80.85;99463.20;105361;1258;59660;-71
2023/02/02 09:11:32;;;;;;;13.30;8.40;;;;;;;2.05;80.72;99462.52;105361;1263;61289;-80
2023/02/02 09:14:01;;;;;;;11.40;8.40;;;;;;;2.12;80.77;99458.92;105401;1260;65093;-73
2023/02/02 09:16:31;;;;;;;10.20;7.30;;;;;;;2.20;80.58;99455.87;105498;1263;59743;-73
2023/02/02 09:18:59;;;;;;;12.20;7.60;;;;;;;2.27;80.42;99452.84;105224;1260;65313;-75
2023/02/02 09:21:27;;;;;;;10.30;7.60;;;;;;;2.33;80.17;99450.09;105674;1257;60962;-75
2023/02/02 09:23:55;;;;;;;11.80;7.60;;;;;;;2.37;79.95;99449.45;105663;1258;59698;-77
2023/02/02 09:26:25;;;;;;;12.50;7.90;;;;;;;2.41;79.92;99447.29;105913;1254;65219;-78
2023/02/02 09:28:58;;;;;;;10.90;7.20;;;;;;;2.47;79.75;99444.34;105889;1260;60388;-73
2023/02/02 09:31:26;;;;;;;10.70;6.00;;;;;;;2.52;79.51;99447.00;106009;1254;65511;-74
2023/02/02 09:33:54;;;;;;;11.30;7.10;;;;;;;2.55;79.30;99445.94;105785;1254;59638;-78
2023/02/02 09:36:23;;;;;;;12.20;7.00;;;;;;;2.58;79.21;99441.55;105860;1254;59640;-75
2023/02/02 09:38:51;;;;;;;10.10;7.30;;;;;;;2.62;78.94;99436.81;105662;1254;65405;-75
2023/02/02 09:41:26;;;;;;;12.20;6.70;;;;;;;2.68;78.82;99435.92;105846;1260;59746;-80
2023/02/02 09:48:30;;;;;;;9.60;7.10;;;;;;;2.87;78.73;99432.30;106564;1255;59880;-74
2023/02/02 09:51:02;;;;;;;10.50;6.70;;;;;;;3.01;78.52;99429.30;105713;1254;59660;-77
2023/02/02 09:53:39;;;;;;;9.60;6.80;;;;;;;3.15;78.47;99430.88;105771;1257;65980;-74
2023/02/02 09:56:53;;;;;;;12.30;7.70;;;;;;;3.24;78.11;99427.17;105832;1259;59724;-76
2023/02/02 09:59:26;;;;;;;9.70;7.40;;;;;;;3.30;77.87;99418.05;105809;1257;65879;-75
2023/02/02 10:01:57;;;;;;;10.10;6.80;;;;;;;3.35;77.62;99412.84;105521;1254;59791;-73
2023/02/02 10:04:39;;;;;;;12.50;7.60;;;;;;;3.38;77.27;99413.89;105999;1256;59624;-74
2023/02/02 10:07:23;;;;;;;11.80;8.80;;;;;;;3.41;77.13;99415.40;105954;1254;65669;-74
2023/02/02 10:09:54;;;;;;;11.00;7.60;;;;;;;3.47;76.95;99411.05;105780;1254;59646;-73
2023/02/02 10:13:01;;;;;;;10.10;7.60;;;;;;;3.55;76.88;99413.14;105809;1254;65231;-73
2023/02/02 10:15:43;;;;;;;12.50;8.70;;;;;;;3.63;76.68;99411.17;105842;1257;59631;-72
2023/02/02 10:18:14;;;;;;;12.30;8.00;;;;;;;3.70;76.36;99406.38;105937;1254;59628;-70
2023/02/02 10:20:45;;;;;;;12.20;7.80;;;;;;;3.77;76.24;99407.85;105906;1257;65628;-74
2023/02/02 10:23:36;;;;;;;15.50;7.80;;;;;;;3.82;75.92;99410.63;105825;1258;59749;-76
2023/02/02 10:26:22;;;;;;;11.30;7.50;;;;;;;3.86;75.58;99410.17;105840;1254;65003;-75
2023/02/02 10:29:12;;;;;;;11.70;7.60;;;;;;;3.86;75.21;99410.67;105584;1262;59746;-77
2023/02/02 10:31:43;;;;;;;8.90;6.80;;;;;;;3.85;74.96;99411.29;105847;1258;59640;-74
2023/02/02 10:34:20;;;;;;;9.40;6.50;;;;;;;3.86;74.78;99415.04;106054;1259;66028;-74
2023/02/02 10:37:11;;;;;;;11.50;7.50;;;;;;;3.88;74.70;99413.86;105759;1254;59949;-76
2023/02/02 10:39:56;;;;;;;10.90;6.90;;;;;;;3.94;74.67;99412.09;105737;1259;64585;-76
2023/02/02 10:42:33;;;;;;;10.30;7.00;;;;;;;3.98;74.51;99407.45;105806;1260;59768;-77
2023/02/02 10:45:03;;;;;;;9.60;7.00;;;;;;;3.98;74.28;99415.14;105868;1259;59774;-77
2023/02/02 10:47:32;;;;;;;10.10;6.90;;;;;;;3.97;74.11;99416.91;105865;1256;65889;-77
2023/02/02 10:50:12;;;;;;;12.30;8.80;;;;;;;3.95;73.82;99415.33;105809;1260;59592;-77
2023/02/02 10:52:54;;;;;;;15.00;9.00;;;;;;;3.94;73.78;99409.96;105810;1254;67841;-75
2023/02/02 10:55:55;;;;;;;12.60;7.00;;;;;;;3.93;73.59;99411.28;105892;1254;59647;-76
2023/02/02 10:58:34;;;;;;;10.50;7.30;;;;;;;3.88;73.31;99411.26;105808;1257;59640;-78
2023/02/02 11:01:06;;;;;;;14.70;9.00;;;;;;;3.84;73.36;99409.63;105621;1254;65944;-75
2023/02/02 11:03:35;;;;;;;13.50;9.50;;;;;;;3.81;73.44;99410.71;105789;1255;59621;-78
2023/02/02 11:08:57;;;;;;;25.50;12.40;;;;;;;3.80;73.52;99414.59;105859;1260;59995;-79
2023/02/02 11:11:28;;;;;;;24.00;12.20;;;;;;;3.80;73.59;99408.72;105723;1254;59870;-76
2023/02/02 11:14:09;;;;;;;20.10;12.40;;;;;;;3.80;73.52;99406.44;105886;1256;65866;-76
2023/02/02 11:16:38;;;;;;;16.40;10.60;;;;;;;3.82;73.50;99408.02;105916;1258;60000;-78
2023/02/02 11:19:18;;;;;;;11.70;8.00;;;;;;;3.84;73.56;99404.71;105925;1260;65545;-73
2023/02/02 11:21:53;;;;;;;8.20;5.50;;;;;;;3.88;73.57;99403.06;106007;1257;59611;-76
2023/02/02 11:24:47;;;;;;;8.00;5.50;;;;;;;3.94;73.68;99401.48;105826;1256;59685;-78
2023/02/02 11:27:40;;;;;;;8.30;5.60;;;;;;;3.98;73.49;99404.81;105898;1259;66060;-73
2023/02/02 11:30:21;;;;;;;7.20;4.30;;;;;;;4.02;73.10;99407.34;105863;1260;60096;-73
2023/02/02 11:32:49;;;;;;;6.80;4.60;;;;;;;4.09;72.79;99403.28;105901;1254;73523;-73
2023/02/02 11:35:25;;;;;;;5.40;3.70;;;;;;;4.14;72.41;99405.66;105786;1254;59984;-73
2023/02/02 11:37:57;;;;;;;3.40;2.60;;;;;;;4.17;71.98;99410.70;105726;1254;59673;-71
2023/02/02 11:40:30;;;;;;;4.40;3.10;;;;;;;4.16;71.50;99408.00;105691;1256;65707;-73
2023/02/02 11:43:00;;;;;;;5.30;2.90;;;;;;;4.15;71.15;99410.13;105717;1258;59596;-73
2023/02/02 11:45:34;;;;;;;4.00;3.00;;;;;;;4.13;71.01;99409.73;105683;1254;65602;-73
2023/02/02 11:48:16;;;;;;;6.10;3.70;;;;;;;4.15;70.87;99411.51;105704;1259;59654;-75
2023/02/02 11:50:49;;;;;;;;;;;;;;;4.23;70.41;99416.05;105712;1254;59670;-72
2023/02/02 11:53:46;;;;;;;4.10;3.30;;;;;;;4.26;69.83;99417.61;105713;1256;65660;-74
2023/02/02 11:56:22;;;;;;;6.30;3.60;;;;;;;4.24;69.61;99414.71;105694;1254;59870;-72
2023/02/02 11:58:55;;;;;;;7.20;4.10;;;;;;;4.21;69.36;99416.45;105490;1260;64831;-72
2023/02/02 12:01:26;;;;;;;5.30;4.30;;;;;;;4.15;69.18;99421.09;105705;1259;59535;-72
2023/02/02 12:03:55;;;;;;;6.60;4.80;;;;;;;4.09;69.03;99421.34;105667;1254;59762;-72
2023/02/02 12:06:24;;;;;;;9.10;6.20;;;;;;;4.00;68.78;99426.67;105643;1257;64846;-72
2023/02/02 12:08:56;;;;;;;9.20;6.50;;;;;;;3.91;68.93;99427.62;105676;1259;59671;-73
2023/02/02 12:11:28;;;;;;;9.70;8.10;;;;;;;3.83;69.11;99430.55;105694;1257;65279;-73
2023/02/02 12:14:22;;;;;;;9.40;7.40;;;;;;;3.79;69.28;99434.52;105667;1253;59531;-73
2023/02/02 12:16:53;;;;;;;;;;;;;;;3.77;69.48;99433.46;105498;1259;59525;-73
2023/02/02 12:19:33;;;;;;;15.40;10.50;;;;;;;3.76;69.74;99435.41;105584;1259;65993;-72
2023/02/02 12:22:45;;;;;;;14.80;10.60;;;;;;;3.78;69.73;99438.42;105554;1258;59947;-73
2023/02/02 12:25:13;;;;;;;11.10;7.30;;;;;;;3.83;69.88;99439.66;105321;1254;65812;-73
2023/02/02 12:27:48;;;;;;;9.30;6.30;;;;;;;3.89;70.00;99443.96;105668;1254;59632;-74
2023/02/02 12:30:27;;;;;;;7.60;6.20;;;;;;;3.95;69.81;99443.15;105831;1254;60045;-74
2023/02/02 12:33:20;;;;;;;7.10;5.80;;;;;;;3.98;69.60;99442.99;105779;1254;65718;-74
2023/02/02 12:36:39;;;;;;;8.30;5.60;;;;;;;3.95;69.50;99447.67;105728;1257;59961;-74
2023/02/02 12:39:17;;;;;;;16.40;10.40;;;;;;;3.89;68.99;99456.66;105431;1257;65569;-73
2023/02/02 12:41:51;;;;;;;10.70;7.20;;;;;;;3.76;68.80;99455.20;105707;1255;60524;-72
2023/02/02 12:44:29;;;;;;;9.40;6.30;;;;;;;3.66;68.69;99457.46;105678;1255;60472;-73
2023/02/02 12:47:25;;;;;;;14.30;8.70;;;;;;;3.57;68.64;99465.20;105680;1256;66494;-73
2023/02/02 12:50:22;;;;;;;11.10;7.50;;;;;;;3.47;68.76;99467.92;105743;1253;60329;-73
2023/02/02 12:52:58;;;;;;;9.10;7.40;;;;;;;3.42;68.86;99472.09;105850;1255;64571;-73
2023/02/02 12:56:04;;;;;;;8.40;6.40;;;;;;;3.40;68.99;99476.60;105832;1253;60444;-73
2023/02/02 12:59:18;;;;;;;7.10;5.50;;;;;;;3.34;69.01;99474.55;105806;1254;60442;-72
2023/02/02 13:01:52;;;;;;;9.70;6.20;;;;;;;3.25;68.90;99476.34;105756;1254;66470;-72
2023/02/02 13:04:49;;;;;;;8.90;6.10;;;;;;;3.18;69.03;99472.93;105757;1256;60424;-72
2023/02/02 13:07:36;;;;;;;10.20;7.70;;;;;;;3.15;69.13;99474.68;105698;1256;65444;-72
2023/02/02 13:10:27;;;;;;;14.50;11.20;;;;;;;3.12;69.24;99483.92;105676;1257;60361;-72
2023/02/02 13:13:03;;;;;;;8.40;7.40;;;;;;;3.06;69.30;99479.26;105606;1257;60510;-72
2023/02/02 13:15:34;;;;;;;9.60;7.10;;;;;;;3.00;69.36;99482.44;105640;1257;66797;-72
2023/02/02 13:18:07;;;;;;;9.50;7.00;;;;;;;2.94;69.38;99484.22;105644;1257;60561;-72
2023/02/02 13:20:44;;;;;;;9.20;7.90;;;;;;;2.88;69.57;99483.36;105787;1254;64907;-72
2023/02/02 13:23:23;;;;;;;8.80;7.60;;;;;;;2.83;69.61;99487.85;105778;1253;60562;-72
2023/02/02 13:25:59;;;;;;;7.60;6.80;;;;;;;2.78;69.86;99491.08;105792;1254;60405;-72
2023/02/02 13:28:39;;;;;;;9.20;6.60;;;;;;;2.75;69.95;99493.53;105710;1254;66696;-72
2023/02/02 13:31:13;;;;;;;7.70;6.60;;;;;;;2.73;70.06;99495.94;105962;1257;60388;-71
2023/02/02 13:33:42;;;;;;;9.40;8.30;;;;;;;2.70;70.23;99496.09;105805;1254;64307;-72
2023/02/02 13:36:24;;;;;;;13.50;11.20;;;;;;;2.69;70.29;99497.20;105581;1254;60555;-72
2023/02/02 13:38:58;;;;;;;16.10;11.40;;;;;;;2.69;70.39;99500.36;105632;1256;60360;-72
2023/02/02 13:41:26;;;;;;;22.20;16.30;;;;;;;2.68;70.48;99499.35;105803;1254;66690;-72
2023/02/02 13:44:03;;;;;;;21.40;16.10;;;;;;;2.67;70.60;99498.00;105690;1260;60401;-72
2023/02/02 13:46:47;;;;;;;14.20;11.10;;;;;;;2.66;70.67;99493.38;105631;1253;65295;-72
2023/02/02 13:49:33;;;;;;;13.20;9.80;;;;;;;2.66;70.83;99493.21;105808;1254;60457;-72
2023/02/02 13:52:27;;;;;;;12.20;10.10;;;;;;;2.68;70.92;99498.49;105773;1254;60593;-72
2023/02/02 13:55:17;;;;;;;14.30;12.40;;;;;;;2.68;70.96;99499.85;105677;1254;65454;-72
2023/02/02 13:58:11;;;;;;;14.70;12.00;;;;;;;2.67;70.99;99501.13;105656;1254;60470;-72
2023/02/02 14:00:46;;;;;;;14.20;10.30;;;;;;;2.65;71.08;99500.23;105596;1254;65675;-72
2023/02/02 14:03:25;;;;;;;14.30;11.30;;;;;;;2.63;71.20;99498.79;105698;1254;60873;-72
2023/02/02 14:06:03;;;;;;;12.20;10.30;;;;;;;2.61;71.30;99498.04;105731;1256;60358;-72
2023/02/02 14:08:32;;;;;;;13.40;9.90;;;;;;;2.60;71.35;99502.79;105674;1254;65687;-72
2023/02/02 14:11:05;;;;;;;11.20;8.50;;;;;;;2.58;71.46;99508.63;105815;1257;60426;-73
2023/02/02 14:16:34;;;;;;;11.60;10.20;;;;;;;2.49;71.58;99515.42;105806;1258;60462;-73
2023/02/02 14:19:05;;;;;;;13.50;11.20;;;;;;;2.45;71.71;99519.16;105872;1253;60480;-73
2023/02/02 14:21:36;;;;;;;12.70;10.60;;;;;;;2.42;71.83;99516.91;105749;1255;66708;-73
2023/02/02 14:24:26;;;;;;;13.10;9.70;;;;;;;2.39;71.91;99519.49;105764;1254;60511;-73
2023/02/02 14:26:56;;;;;;;12.80;10.30;;;;;;;2.37;72.05;99521.58;105728;1254;65235;-73
2023/02/02 14:29:30;;;;;;;13.70;10.30;;;;;;;2.33;72.16;99521.98;105770;1254;60393;-73
2023/02/02 14:31:59;;;;;;;15.60;10.10;;;;;;;2.31;72.38;99521.75;105719;1254;60542;-73
2023/02/02 14:34:41;;;;;;;13.00;10.40;;;;;;;2.29;72.43;99519.41;105862;1253;66719;-73